createdAt,value
2022-08-17T01:01:26.998Z,6.15
2022-08-17T01:04:50.957Z,12.83
2022-08-17T01:08:00.030Z,19.03
2022-08-17T01:11:24.032Z,19.33
2022-08-17T01:14:36.031Z,15.73
2022-08-17T01:18:01.996Z,13.87
2022-08-17T01:21:14.103Z,24.07
2022-08-17T01:24:39.004Z,24.73
2022-08-17T01:27:51.043Z,20.27
2022-08-17T01:31:16.208Z,19.27
2022-08-17T01:34:36.865Z,15.50
2022-08-17T01:37:53.059Z,23.23
2022-08-17T01:41:07.178Z,27.03
2022-08-17T01:44:31.114Z,18.27
2022-08-17T01:47:32.091Z,17.40
2022-08-17T01:50:56.123Z,23.80
2022-08-17T01:54:08.113Z,20.73
2022-08-17T01:57:35.125Z,20.03
2022-08-17T02:00:59.735Z,19.87
2022-08-17T02:04:01.141Z,16.67
2022-08-17T02:07:01.140Z,17.53
2022-08-17T02:10:20.371Z,16.17
2022-08-17T02:13:28.186Z,21.70
2022-08-17T02:16:52.203Z,18.20
2022-08-17T02:20:04.234Z,21.10
2022-08-17T02:23:28.210Z,19.10
2022-08-17T02:26:40.231Z,15.57
2022-08-17T02:31:01.562Z,22.70
2022-08-17T02:33:19.275Z,15.80
2022-08-17T02:36:32.273Z,23.87
2022-08-17T02:39:34.288Z,20.80
2022-08-17T02:42:58.282Z,20.50
2022-08-17T02:46:12.264Z,20.87
2022-08-17T02:49:25.278Z,16.50
2022-08-17T02:52:42.361Z,15.30
2022-08-17T02:55:50.353Z,16.57
2022-08-17T02:59:02.324Z,16.30
2022-08-17T03:02:29.345Z,13.83
2022-08-17T03:05:41.330Z,15.07
2022-08-17T03:08:54.375Z,17.60
2022-08-17T03:12:07.335Z,21.03
2022-08-17T03:15:32.360Z,20.47
2022-08-17T03:18:46.408Z,23.23
2022-08-17T03:22:00.377Z,18.10
2022-08-17T03:25:00.388Z,24.77
2022-08-17T03:28:25.431Z,22.57
2022-08-17T03:31:34.441Z,24.67
2022-08-17T03:35:01.408Z,19.83
2022-08-17T03:38:02.493Z,24.77
2022-08-17T03:41:15.429Z,18.20
2022-08-17T03:44:27.477Z,26.63
2022-08-17T03:47:57.254Z,22.50
2022-08-17T03:51:15.919Z,19.40
2022-08-17T03:54:46.163Z,14.40
2022-08-17T03:57:47.540Z,17.73
2022-08-17T04:01:11.550Z,16.07
2022-08-17T04:04:35.503Z,20.77
2022-08-17T04:07:49.501Z,18.60
2022-08-17T04:11:02.564Z,22.20
2022-08-17T04:14:03.565Z,24.50
2022-08-17T04:17:28.537Z,13.57
2022-08-17T04:20:40.570Z,14.10
2022-08-17T04:24:07.586Z,15.63
2022-08-17T04:27:08.557Z,13.20
2022-08-17T04:30:34.583Z,25.40
2022-08-17T04:33:46.606Z,22.97
2022-08-17T04:37:10.615Z,22.07
2022-08-17T04:40:29.084Z,25.37
2022-08-17T04:43:53.607Z,17.93
2022-08-17T04:46:54.781Z,14.50
2022-08-17T04:50:07.695Z,13.60
2022-08-17T04:53:08.659Z,13.40
2022-08-17T04:56:35.681Z,12.43
2022-08-17T04:59:36.688Z,12.57
2022-08-17T05:03:08.717Z,13.17
2022-08-17T05:06:09.719Z,13.50
2022-08-17T05:09:33.730Z,21.63
2022-08-17T05:12:47.734Z,19.47
2022-08-17T05:16:11.760Z,21.00
2022-08-17T05:19:12.742Z,26.40
2022-08-17T05:22:36.789Z,24.20
2022-08-17T05:25:48.748Z,27.90
2022-08-17T05:29:14.769Z,24.67
2022-08-17T05:32:39.006Z,22.60
2022-08-17T05:35:56.827Z,23.50
2022-08-17T05:38:58.841Z,20.67
2022-08-17T05:42:22.870Z,22.60
2022-08-17T05:45:39.971Z,36.93
2022-08-17T05:49:00.891Z,33.47
2022-08-17T05:52:20.117Z,24.07
2022-08-17T05:55:42.865Z,23.40
2022-08-17T05:59:03.886Z,26.70
2022-08-17T06:02:31.889Z,27.50
2022-08-17T06:06:01.910Z,25.93
2022-08-17T06:09:14.938Z,19.93
2022-08-17T06:12:42.953Z,20.17
2022-08-17T06:15:52.922Z,27.30
2022-08-17T06:19:18.908Z,26.67
2022-08-17T06:22:30.920Z,26.67
2022-08-17T06:25:54.938Z,23.27
2022-08-17T06:29:08.224Z,23.50
2022-08-17T06:32:31.989Z,20.30
2022-08-17T06:35:46.043Z,22.57
2022-08-17T06:39:11.981Z,25.97
2022-08-17T06:42:54.813Z,23.70
2022-08-17T06:45:50.025Z,23.73
2022-08-17T06:49:03.077Z,24.63
2022-08-17T06:52:45.430Z,20.70
2022-08-17T06:55:41.049Z,38.53
2022-08-17T06:59:05.055Z,24.43
2022-08-17T07:02:04.037Z,25.03
2022-08-17T07:05:30.075Z,21.30
2022-08-17T07:08:44.071Z,23.83
2022-08-17T07:12:08.124Z,21.97
2022-08-17T07:15:21.136Z,25.20
2022-08-17T07:18:46.141Z,22.67
2022-08-17T07:22:02.062Z,22.90
2022-08-17T07:25:28.156Z,23.37
2022-08-17T07:28:40.134Z,24.60
2022-08-17T07:32:04.173Z,25.20
2022-08-17T07:35:24.149Z,23.07
2022-08-17T07:38:48.210Z,22.73
2022-08-17T07:42:02.166Z,19.37
2022-08-17T07:45:28.262Z,21.27
2022-08-17T07:48:40.220Z,23.83
2022-08-17T07:52:48.549Z,21.00
2022-08-17T07:55:06.285Z,21.00
2022-08-17T07:58:33.279Z,18.70
2022-08-17T08:01:41.797Z,17.73
2022-08-17T08:05:00.916Z,19.87
2022-08-17T08:08:14.281Z,17.97
2022-08-17T08:11:44.098Z,17.57
2022-08-17T08:14:54.298Z,17.50
2022-08-17T08:18:19.296Z,18.87
2022-08-17T08:21:31.297Z,17.40
2022-08-17T08:25:04.305Z,14.43
2022-08-17T08:28:18.298Z,16.00
2022-08-17T08:31:45.345Z,14.13
2022-08-17T08:38:23.382Z,16.30
2022-08-17T08:41:38.369Z,16.03
2022-08-17T08:45:04.628Z,19.63
2022-08-17T08:48:53.407Z,16.90
2022-08-17T08:51:53.420Z,13.33
2022-08-17T08:55:05.404Z,11.73
2022-08-17T08:58:31.510Z,16.53
2022-08-17T09:01:40.447Z,11.63
2022-08-17T09:05:14.478Z,14.27
2022-08-17T09:08:22.453Z,15.13
2022-08-17T09:12:01.766Z,18.83
2022-08-17T09:15:00.520Z,15.83
2022-08-17T09:19:03.386Z,16.73
2022-08-17T09:21:38.491Z,15.77
2022-08-17T09:25:02.542Z,15.23
2022-08-17T09:28:15.501Z,14.13
2022-08-17T09:31:46.404Z,17.17
2022-08-17T09:34:52.561Z,11.00
2022-08-17T09:38:19.746Z,10.17
2022-08-17T09:41:32.586Z,17.00
2022-08-17T09:44:57.579Z,11.03
2022-08-17T09:48:07.603Z,11.03
2022-08-17T09:51:31.570Z,12.23
2022-08-17T09:54:45.613Z,14.23
2022-08-17T09:58:12.623Z,7.90
2022-08-17T10:01:24.646Z,12.73
2022-08-17T10:04:50.610Z,10.37
2022-08-17T10:08:03.645Z,13.10
2022-08-17T10:11:33.856Z,11.50
2022-08-17T10:14:55.669Z,13.60
2022-08-17T10:18:33.104Z,11.47
2022-08-17T10:21:44.168Z,12.47
2022-08-17T10:25:23.894Z,8.80
2022-08-17T10:28:30.011Z,7.23
2022-08-17T10:31:52.747Z,13.50
2022-08-17T10:35:13.695Z,11.50
2022-08-17T10:38:53.692Z,10.53
2022-08-17T10:42:05.722Z,10.80
2022-08-17T10:45:31.731Z,10.03
2022-08-17T10:48:50.762Z,13.93
2022-08-17T10:52:14.859Z,7.53
2022-08-17T10:55:33.832Z,9.20
2022-08-17T10:58:59.761Z,11.60
2022-08-17T11:02:24.790Z,7.80
2022-08-17T11:05:59.832Z,9.37
2022-08-17T11:09:49.790Z,10.90
2022-08-17T11:13:14.857Z,14.50
2022-08-17T11:16:45.817Z,15.27
2022-08-17T11:20:49.858Z,20.30
2022-08-17T11:24:38.975Z,11.10
2022-08-17T11:28:04.827Z,13.87
2022-08-17T11:31:16.877Z,16.37
2022-08-17T11:34:41.870Z,8.97
2022-08-17T11:38:07.761Z,13.73
2022-08-17T11:41:38.926Z,21.43
2022-08-17T11:44:55.907Z,20.10
2022-08-17T11:48:28.185Z,21.13
2022-08-17T11:51:46.062Z,21.47
2022-08-17T11:55:34.035Z,16.03
2022-08-17T11:58:25.055Z,20.97
2022-08-17T12:02:15.954Z,11.17
2022-08-17T12:05:49.997Z,18.40
2022-08-17T12:09:02.980Z,10.25
2022-08-17T12:12:28.007Z,17.37
2022-08-17T12:15:41.985Z,11.30
2022-08-17T12:19:19.025Z,15.87
2022-08-17T12:22:32.019Z,26.00
2022-08-17T12:25:57.072Z,20.07
2022-08-17T12:29:09.352Z,26.93
2022-08-17T12:32:35.029Z,22.93
2022-08-17T12:35:47.089Z,20.73
2022-08-17T12:39:21.288Z,19.83
2022-08-17T12:42:27.068Z,19.27
2022-08-17T12:45:51.070Z,27.30
2022-08-17T12:49:05.065Z,23.85
2022-08-17T12:52:30.150Z,13.30
2022-08-17T12:55:42.180Z,26.47
2022-08-17T12:59:08.128Z,25.60
2022-08-17T13:02:20.117Z,28.20
2022-08-17T13:05:49.170Z,12.55
2022-08-17T13:09:01.174Z,18.15
2022-08-17T13:12:15.217Z,19.53
2022-08-17T13:15:27.140Z,16.03
2022-08-17T13:19:12.205Z,31.35
2022-08-17T13:22:26.182Z,23.67
2022-08-17T13:25:50.224Z,15.65
2022-08-17T14:18:54.288Z,14.83
2022-08-17T14:21:40.196Z,18.05
2022-08-17T14:24:53.124Z,15.13
2022-08-17T14:28:17.095Z,12.70
2022-08-17T14:31:31.872Z,13.00
2022-08-17T14:34:54.177Z,10.95
2022-08-17T14:38:06.153Z,12.43
2022-08-17T14:41:22.198Z,11.50
2022-08-17T14:44:31.265Z,12.10
2022-08-17T14:47:56.199Z,14.80
2022-08-17T14:51:22.186Z,16.60
2022-08-17T14:54:36.197Z,20.17
2022-08-17T14:57:48.258Z,10.53
2022-08-17T15:01:12.321Z,9.60
2022-08-17T15:04:13.276Z,8.10
2022-08-17T15:07:39.240Z,9.33
2022-08-17T15:10:54.385Z,7.17
2022-08-17T15:14:05.314Z,7.73
2022-08-17T15:17:06.286Z,7.85
2022-08-17T15:20:31.298Z,5.67
2022-08-17T15:23:45.288Z,6.10
2022-08-17T15:27:09.298Z,4.63
2022-08-17T15:30:10.348Z,5.67
2022-08-17T15:33:37.287Z,4.57
2022-08-17T15:36:49.764Z,8.43
2022-08-17T15:40:15.424Z,7.17
2022-08-17T15:43:29.427Z,4.93
2022-08-17T15:46:54.368Z,5.83
2022-08-17T15:50:06.369Z,4.70
2022-08-17T15:53:31.377Z,8.07
2022-08-17T15:56:45.383Z,4.97
2022-08-17T16:00:10.476Z,6.57
2022-08-17T16:03:56.058Z,3.97
2022-08-17T16:06:35.394Z,5.13
2022-08-17T16:09:48.436Z,2.93
2022-08-17T16:13:01.439Z,5.87
2022-08-17T16:16:14.447Z,3.33
2022-08-17T16:19:14.467Z,3.73
2022-08-17T16:22:38.505Z,3.23
2022-08-17T16:25:53.518Z,4.00
2022-08-17T16:29:28.510Z,2.60
2022-08-17T16:32:40.493Z,2.47
2022-08-17T16:36:04.556Z,3.10
2022-08-17T16:39:05.519Z,2.50
2022-08-17T16:42:30.582Z,2.63
2022-08-17T16:45:47.533Z,2.23
2022-08-17T16:48:57.571Z,2.73
2022-08-17T16:51:58.558Z,8.33
2022-08-17T16:55:22.599Z,2.90
2022-08-17T16:58:34.558Z,4.87
2022-08-17T17:02:00.593Z,8.13
2022-08-17T17:05:14.638Z,3.93
2022-08-17T17:08:44.078Z,2.77
2022-08-17T17:11:50.622Z,3.47
2022-08-17T17:15:17.657Z,2.87
2022-08-17T17:18:28.610Z,2.63
2022-08-17T17:21:52.661Z,2.70
2022-08-17T17:25:05.665Z,2.57
2022-08-17T17:28:30.685Z,3.47
2022-08-17T17:31:42.725Z,4.87
2022-08-17T17:35:09.718Z,2.43
2022-08-17T17:38:21.750Z,3.00
2022-08-17T17:41:45.775Z,4.90
2022-08-17T17:44:57.747Z,2.27
2022-08-17T17:48:21.737Z,2.50
2022-08-17T17:52:09.146Z,2.63
2022-08-17T17:55:13.742Z,2.87
2022-08-17T17:58:27.783Z,2.53
2022-08-17T18:01:55.878Z,2.63
2022-08-17T18:05:20.802Z,2.33
2022-08-17T18:08:35.069Z,2.23
2022-08-17T18:12:32.813Z,2.93
2022-08-17T18:15:43.822Z,5.13
2022-08-17T18:19:07.832Z,5.40
2022-08-17T18:22:19.818Z,4.07
2022-08-17T18:26:06.857Z,3.07
2022-08-17T18:29:18.836Z,2.93
2022-08-17T18:32:52.898Z,2.70
2022-08-17T18:36:04.880Z,10.57
2022-08-17T18:39:38.925Z,6.17
2022-08-17T18:42:52.895Z,3.80
2022-08-17T18:46:16.903Z,3.73
2022-08-17T18:49:28.937Z,2.47
2022-08-17T18:52:52.951Z,2.30
2022-08-17T18:55:53.927Z,2.70
2022-08-17T18:59:26.972Z,3.13
2022-08-17T19:02:45.970Z,3.43
2022-08-17T19:06:06.972Z,2.63
2022-08-17T19:09:07.976Z,2.40
2022-08-17T19:12:32.058Z,2.60
2022-08-17T19:15:41.993Z,2.40
2022-08-17T19:19:06.011Z,3.00
2022-08-17T19:22:28.407Z,2.57
2022-08-17T19:25:43.065Z,2.33
2022-08-17T19:28:55.025Z,4.83
2022-08-17T19:32:20.108Z,4.40
2022-08-17T19:35:33.031Z,2.67
2022-08-17T19:39:04.068Z,3.33
2022-08-17T19:42:17.054Z,2.70
2022-08-17T19:45:42.121Z,3.00
2022-08-17T19:48:57.172Z,3.13
2022-08-17T19:52:21.245Z,2.67
2022-08-17T19:55:34.097Z,2.80
2022-08-17T19:59:00.777Z,3.00
2022-08-17T20:02:14.143Z,2.80
2022-08-17T20:06:01.329Z,3.50
2022-08-17T20:08:52.155Z,5.65
2022-08-17T20:12:16.293Z,3.70
2022-08-17T20:15:29.189Z,3.43
2022-08-17T20:18:54.208Z,3.80
2022-08-17T20:22:08.243Z,3.33
2022-08-17T20:25:35.192Z,4.80
2022-08-17T20:28:47.271Z,4.00
2022-08-17T20:32:11.204Z,3.93
2022-08-17T20:35:26.260Z,4.90
2022-08-17T20:39:01.267Z,4.50
2022-08-17T20:42:26.252Z,4.40
2022-08-17T20:46:06.271Z,5.20
2022-08-17T20:49:18.314Z,4.77
2022-08-17T20:53:13.362Z,5.13
2022-08-17T20:56:27.307Z,5.47
2022-08-17T21:00:24.316Z,5.30
2022-08-17T21:04:08.371Z,5.40
2022-08-17T21:07:48.365Z,5.43
2022-08-17T21:11:01.359Z,6.60
2022-08-17T21:14:29.439Z,8.57
2022-08-17T21:18:01.353Z,5.33
2022-08-17T21:21:26.446Z,6.13
2022-08-17T21:24:41.415Z,6.10
2022-08-17T21:28:06.435Z,5.87
2022-08-17T21:31:21.438Z,9.33
2022-08-17T21:34:52.445Z,6.13
2022-08-17T21:38:04.437Z,6.17
2022-08-17T21:41:28.468Z,6.60
2022-08-17T21:44:43.447Z,10.60
2022-08-17T21:48:09.432Z,6.87
2022-08-17T21:51:23.476Z,6.73
2022-08-17T21:54:52.489Z,6.03
2022-08-17T21:58:14.178Z,5.83
2022-08-17T22:01:36.551Z,6.33
2022-08-17T22:05:03.517Z,6.00
2022-08-17T22:08:15.604Z,6.07
2022-08-17T22:11:28.530Z,5.87
2022-08-17T22:14:52.821Z,6.75
2022-08-17T22:18:05.538Z,6.13
2022-08-17T22:21:19.559Z,5.77
2022-08-17T22:24:43.551Z,5.90
2022-08-17T22:28:08.624Z,6.37
2022-08-17T22:31:30.592Z,6.50
2022-08-17T22:34:31.663Z,5.90
2022-08-17T22:37:56.628Z,5.67
2022-08-17T22:41:08.632Z,5.80
2022-08-17T22:44:39.686Z,6.00
2022-08-17T22:47:49.773Z,6.17
2022-08-17T22:51:14.059Z,6.67
2022-08-17T22:54:33.208Z,5.83
2022-08-17T22:58:03.463Z,5.07
2022-08-17T23:01:18.706Z,5.20
2022-08-17T23:04:54.722Z,10.07
2022-08-17T23:08:06.707Z,5.20
2022-08-17T23:11:36.629Z,6.30
2022-08-17T23:14:44.736Z,6.17
2022-08-17T23:18:08.734Z,6.83
2022-08-17T23:21:09.754Z,5.73
2022-08-17T23:24:34.026Z,5.93
2022-08-17T23:27:47.791Z,5.37
2022-08-17T23:31:11.791Z,5.37
2022-08-17T23:34:23.771Z,5.73
2022-08-17T23:37:37.840Z,5.63
2022-08-17T23:40:50.803Z,5.83
2022-08-17T23:44:16.826Z,6.20
2022-08-17T23:47:28.872Z,6.60
2022-08-17T23:50:41.876Z,5.23
2022-08-17T23:53:53.857Z,5.90
2022-08-17T23:57:17.929Z,5.17
